Koeln, Germany

9:31 AM CEST on July 26, 2016 (GMT +0200)
Meigerhof | | Change Station

Elev 456 ft 50.87 °N, 7.21 °E | Updated 60 seconds ago

Mostly Cloudy
Mostly Cloudy
68.2 °F
Feels Like 68.2 °F
N
2.0
Wind Variable Wind from NW
Gusts 2.0 mph

Today
High -- | Low -- °F
--% Chance of Precip.
Yesterday
High -- | Low -- °F
Precip. -- in
Pressure 30.15 in
Visibility 6.2 miles
Clouds Few 1000 ft
Mostly Cloudy 6500 ft
Dew Point 64 °F
Humidity 85%
Rainfall 0.00 in
Snow Depth Not available.
5:49 AM 9:25 PM
Waning Gibbous, 57% visible
METAR EDDK 260720Z VRB01KT 9999 FEW010 BKN065 20/17 Q1021 NOSIG
Pressure 30.15 in
Visibility 6.2 miles
Clouds Few 1000 ft
Mostly Cloudy 6500 ft
Dew Point 64 °F
Humidity 85%
Rainfall 0.00 in
Snow Depth Not available.
5:49 AM 9:25 PM
Waning Gibbous, 57% visible
METAR EDDK 260720Z VRB01KT 9999 FEW010 BKN065 20/17 Q1021 NOSIG

10-Day Weather Forecast

×

Almanac

Astronomy

Jul. 26, 2016 Rise Set
Actual Time
Civil Twilight
Nautical Twilight
Astronomical Twilight
Moon
Length of Visible Light
Length of Day
Tomorrow will be .
, % of the Moon is Illuminated

Today's Extremes

Country Highs Country Lows

Community

WunderPhotos

Upload Photos

1,927,552 photos uploaded!

WunderBlog® & News

Nearby

Air Quality

  Air Quality AQ Index Pollutant
Not available.

Snow Depth

Station Depth Elevation

Earthquake Activity

City Distance Mag. Time & Date
Minimum magnitude displayed is 2.5.

Coastal Water Temperatures

Place Temperature

Stations

Nearby Weather Stations

Station Location Temp. Windchill Dew Point Humidity Wind Precip. Elev Updated Type